Time;durP1;ratioP1;P1;durP2;ratioP2;P2;SDS_P1;SDS_P2;PMS_P1;PMS_P2;Temp;Humidity;BMP_temperature;BMP_pressure;BME280_temperature;BME280_humidity;BME280_pressure;Samples;Min_cycle;Max_cycle;Signal;HPM_P1;HPM_P2
2020/12/19 00:02:13;;;;;;;17.02;13.35;;;;;;;;;;5082320;28;20187;-76
2020/12/19 00:04:39;;;;;;;17.42;14.70;;;;;;;;;;5071151;28;20535;-75
2020/12/19 00:07:06;;;;;;;18.98;15.02;;;;;;;;;;5090930;28;20195;-76
2020/12/19 00:09:32;;;;;;;21.15;14.73;;;;;;;;;;5081270;28;20641;-79
2020/12/19 00:11:58;;;;;;;19.13;15.57;;;;;;;;;;5090349;28;20178;-74
2020/12/19 00:14:24;;;;;;;19.08;15.30;;;;;;;;;;5074591;28;20176;-77
2020/12/19 00:16:50;;;;;;;20.77;16.30;;;;;;;;;;5079642;28;20215;-76
2020/12/19 00:19:16;;;;;;;19.23;14.75;;;;;;;;;;5080297;28;20222;-77
2020/12/19 00:21:42;;;;;;;18.40;14.85;;;;;;;;;;5091445;28;20179;-76
2020/12/19 00:24:08;;;;;;;18.75;16.42;;;;;;;;;;5089564;28;20183;-75
2020/12/19 00:26:39;;;;;;;18.35;14.35;;;;;;;;;;5085991;28;20176;-74
2020/12/19 00:29:06;;;;;;;15.77;13.88;;;;;;;;;;5087222;28;20742;-76
2020/12/19 00:31:32;;;;;;;15.23;12.85;;;;;;;;;;5087241;28;20176;-77
2020/12/19 00:33:58;;;;;;;22.45;14.00;;;;;;;;;;5083997;28;20180;-77
2020/12/19 00:36:24;;;;;;;21.40;14.10;;;;;;;;;;5091606;28;20167;-76
2020/12/19 00:38:51;;;;;;;18.35;14.45;;;;;;;;;;5082695;28;20215;-78
2020/12/19 00:41:21;;;;;;;20.45;15.00;;;;;;;;;;5079099;28;20176;-76
2020/12/19 00:43:47;;;;;;;18.77;14.45;;;;;;;;;;5082956;28;20199;-77
2020/12/19 00:46:14;;;;;;;18.52;14.60;;;;;;;;;;5091171;28;20190;-76
2020/12/19 00:48:43;;;;;;;20.83;14.43;;;;;;;;;;5080364;28;20558;-75
2020/12/19 00:51:13;;;;;;;23.48;15.07;;;;;;;;;;5070756;28;20194;-77
2020/12/19 00:53:40;;;;;;;19.25;14.43;;;;;;;;;;5070335;28;20174;-76
2020/12/19 00:56:06;;;;;;;21.20;15.10;;;;;;;;;;5072876;28;20267;-76
2020/12/19 00:58:32;;;;;;;20.77;15.13;;;;;;;;;;5070732;28;20188;-77
2020/12/19 01:00:58;;;;;;;18.95;14.63;;;;;;;;;;5070576;28;20176;-76
2020/12/19 01:03:24;;;;;;;19.42;13.63;;;;;;;;;;5070403;28;20184;-76
2020/12/19 01:05:51;;;;;;;18.10;14.88;;;;;;;;;;5068604;28;20184;-77
2020/12/19 01:08:17;;;;;;;16.17;13.93;;;;;;;;;;5074147;28;20306;-75
2020/12/19 01:10:43;;;;;;;18.02;14.20;;;;;;;;;;5094224;28;20196;-76
2020/12/19 01:13:09;;;;;;;21.35;15.20;;;;;;;;;;5080267;28;20172;-77
2020/12/19 01:15:35;;;;;;;20.80;14.85;;;;;;;;;;5089999;28;20602;-76
2020/12/19 01:18:01;;;;;;;18.52;14.32;;;;;;;;;;5090375;28;20294;-74
2020/12/19 01:20:27;;;;;;;23.00;15.35;;;;;;;;;;5090177;28;20366;-75
2020/12/19 01:22:53;;;;;;;20.02;14.57;;;;;;;;;;5090514;28;20175;-75
2020/12/19 01:25:19;;;;;;;22.85;15.48;;;;;;;;;;5071968;28;20283;-75
2020/12/19 01:27:45;;;;;;;19.70;15.50;;;;;;;;;;5074743;28;20184;-77
2020/12/19 01:30:11;;;;;;;20.60;15.50;;;;;;;;;;5077523;28;20199;-77
2020/12/19 01:32:37;;;;;;;18.52;15.02;;;;;;;;;;5090263;28;20876;-77
2020/12/19 01:35:04;;;;;;;21.30;15.27;;;;;;;;;;5087697;28;20226;-76
2020/12/19 01:37:30;;;;;;;19.23;15.20;;;;;;;;;;5091277;28;20562;-76
2020/12/19 01:39:56;;;;;;;21.58;15.13;;;;;;;;;;5093539;28;20612;-76
2020/12/19 01:42:22;;;;;;;24.35;15.60;;;;;;;;;;5082788;28;20478;-74
2020/12/19 01:44:49;;;;;;;20.60;15.88;;;;;;;;;;5073106;28;20576;-76
2020/12/19 01:47:15;;;;;;;21.00;15.90;;;;;;;;;;5073741;28;20202;-74
2020/12/19 01:49:41;;;;;;;21.50;16.27;;;;;;;;;;5073508;28;20253;-77
2020/12/19 01:52:08;;;;;;;23.88;15.95;;;;;;;;;;5079377;28;20168;-77
2020/12/19 01:54:34;;;;;;;22.38;15.55;;;;;;;;;;5088799;28;20515;-78
2020/12/19 01:57:01;;;;;;;21.15;15.45;;;;;;;;;;5088543;28;20178;-75
2020/12/19 01:59:28;;;;;;;22.13;15.90;;;;;;;;;;5098700;28;20306;-74
2020/12/19 02:01:56;;;;;;;21.05;16.02;;;;;;;;;;5094336;28;20190;-75
2020/12/19 02:04:26;;;;;;;22.50;16.70;;;;;;;;;;5092916;28;20182;-78
2020/12/19 02:06:53;;;;;;;23.85;17.15;;;;;;;;;;5093608;28;20171;-74
2020/12/19 02:09:20;;;;;;;23.30;16.60;;;;;;;;;;5096596;28;20194;-73
2020/12/19 02:11:47;;;;;;;22.45;17.00;;;;;;;;;;5076472;28;20588;-73
2020/12/19 02:14:13;;;;;;;24.55;17.13;;;;;;;;;;5088271;28;20179;-76
2020/12/19 02:16:40;;;;;;;28.50;16.08;;;;;;;;;;5092103;28;20202;-74
2020/12/19 02:19:12;;;;;;;26.13;16.27;;;;;;;;;;5093318;28;20203;-75
2020/12/19 02:21:39;;;;;;;25.85;18.13;;;;;;;;;;5093442;28;20175;-74
2020/12/19 02:24:06;;;;;;;24.63;18.02;;;;;;;;;;5091276;28;20191;-75
2020/12/19 02:26:32;;;;;;;27.00;18.65;;;;;;;;;;5072924;28;20518;-76
2020/12/19 02:28:58;;;;;;;26.63;18.52;;;;;;;;;;5079800;28;20285;-77
2020/12/19 02:31:24;;;;;;;28.05;17.98;;;;;;;;;;5097183;28;20175;-74
2020/12/19 02:33:50;;;;;;;26.05;17.55;;;;;;;;;;5099925;28;20632;-76
2020/12/19 02:36:16;;;;;;;28.92;17.85;;;;;;;;;;5099871;28;20174;-72
2020/12/19 02:38:42;;;;;;;26.30;18.20;;;;;;;;;;5099865;28;20182;-76
2020/12/19 02:41:09;;;;;;;34.35;18.90;;;;;;;;;;5099822;28;20178;-77
2020/12/19 02:43:35;;;;;;;29.33;19.27;;;;;;;;;;5099507;28;20210;-73
2020/12/19 02:46:01;;;;;;;31.55;18.85;;;;;;;;;;5099945;28;20248;-77
2020/12/19 02:48:27;;;;;;;26.58;17.85;;;;;;;;;;5100440;28;20195;-76
2020/12/19 02:50:53;;;;;;;25.80;18.15;;;;;;;;;;5099517;28;20664;-76
2020/12/19 02:53:19;;;;;;;27.58;18.73;;;;;;;;;;5099851;28;20556;-76
2020/12/19 02:55:45;;;;;;;30.23;19.73;;;;;;;;;;5099384;28;20168;-74
2020/12/19 02:58:11;;;;;;;27.33;18.90;;;;;;;;;;5099213;28;20202;-75
2020/12/19 03:00:37;;;;;;;28.85;19.67;;;;;;;;;;5094295;28;20216;-75
2020/12/19 03:03:03;;;;;;;29.98;19.75;;;;;;;;;;5099488;28;20175;-75
2020/12/19 03:05:30;;;;;;;32.58;19.55;;;;;;;;;;5096145;28;20192;-74
2020/12/19 03:07:56;;;;;;;27.17;18.38;;;;;;;;;;5090904;28;20195;-76
2020/12/19 03:10:22;;;;;;;26.65;18.35;;;;;;;;;;5097198;28;20214;-77
2020/12/19 03:12:48;;;;;;;30.30;19.70;;;;;;;;;;5099509;28;20172;-76
2020/12/19 03:15:14;;;;;;;27.65;19.15;;;;;;;;;;5088456;28;20187;-76
2020/12/19 03:17:41;;;;;;;30.02;19.08;;;;;;;;;;5079636;28;20290;-74
2020/12/19 03:20:07;;;;;;;28.95;19.63;;;;;;;;;;5099084;28;20199;-77
2020/12/19 03:22:33;;;;;;;30.67;20.45;;;;;;;;;;5099654;28;20182;-75
2020/12/19 03:24:59;;;;;;;29.27;19.13;;;;;;;;;;5098138;28;20174;-78
2020/12/19 03:27:25;;;;;;;34.30;20.25;;;;;;;;;;5098346;28;20599;-73
2020/12/19 03:29:51;;;;;;;29.10;19.60;;;;;;;;;;5099656;28;20568;-74
2020/12/19 03:32:18;;;;;;;34.00;20.42;;;;;;;;;;5099137;28;20179;-74
2020/12/19 03:34:44;;;;;;;29.80;19.85;;;;;;;;;;5099817;28;20171;-77
2020/12/19 03:37:10;;;;;;;29.63;20.63;;;;;;;;;;5099584;28;20177;-74
2020/12/19 03:39:36;;;;;;;32.63;19.63;;;;;;;;;;5082039;28;20204;-75
2020/12/19 03:42:02;;;;;;;33.92;21.50;;;;;;;;;;5081960;28;20179;-75
2020/12/19 03:44:28;;;;;;;34.75;21.73;;;;;;;;;;5085856;28;20548;-75
2020/12/19 03:46:54;;;;;;;33.28;21.48;;;;;;;;;;5096658;28;20164;-77
2020/12/19 03:49:20;;;;;;;33.17;20.48;;;;;;;;;;5082445;28;20207;-78
2020/12/19 03:51:46;;;;;;;33.75;20.88;;;;;;;;;;5078582;28;20497;-74
2020/12/19 03:54:12;;;;;;;34.97;20.50;;;;;;;;;;5087492;28;20183;-75
2020/12/19 03:56:38;;;;;;;35.85;22.73;;;;;;;;;;5086377;28;20309;-75
2020/12/19 03:59:04;;;;;;;36.45;23.23;;;;;;;;;;5076746;28;20557;-75
2020/12/19 04:01:30;;;;;;;33.97;21.00;;;;;;;;;;5085546;28;20176;-76
2020/12/19 04:03:57;;;;;;;33.30;21.33;;;;;;;;;;5075962;28;20578;-74
2020/12/19 04:06:23;;;;;;;37.28;23.85;;;;;;;;;;5090982;28;20175;-76
2020/12/19 04:08:50;;;;;;;35.35;21.73;;;;;;;;;;5092422;28;20210;-76
2020/12/19 04:11:17;;;;;;;34.97;22.13;;;;;;;;;;5088730;28;20176;-77
2020/12/19 04:13:43;;;;;;;34.97;21.83;;;;;;;;;;5092734;28;20171;-76
2020/12/19 04:16:09;;;;;;;36.13;22.00;;;;;;;;;;5082370;28;20176;-74
2020/12/19 04:18:35;;;;;;;32.70;22.00;;;;;;;;;;5086785;28;20199;-75
2020/12/19 04:21:01;;;;;;;39.72;24.02;;;;;;;;;;5075473;28;20610;-75
2020/12/19 04:23:27;;;;;;;39.35;22.77;;;;;;;;;;5088871;28;20180;-77
2020/12/19 04:25:53;;;;;;;35.58;22.80;;;;;;;;;;5081801;28;20176;-74
2020/12/19 04:28:19;;;;;;;38.67;23.40;;;;;;;;;;5073496;28;20196;-74
2020/12/19 04:30:45;;;;;;;38.70;21.88;;;;;;;;;;5088334;28;20227;-75
2020/12/19 04:33:11;;;;;;;37.22;23.15;;;;;;;;;;5085040;28;20218;-73
2020/12/19 04:35:37;;;;;;;36.88;22.50;;;;;;;;;;5083039;28;20260;-74
2020/12/19 04:38:03;;;;;;;40.38;23.13;;;;;;;;;;5074723;28;20194;-74
2020/12/19 04:40:29;;;;;;;36.63;22.70;;;;;;;;;;5081597;28;20191;-75
2020/12/19 04:42:55;;;;;;;37.65;24.23;;;;;;;;;;5075779;28;20179;-75
2020/12/19 04:45:21;;;;;;;38.95;23.50;;;;;;;;;;5085707;28;20175;-75
2020/12/19 04:47:48;;;;;;;36.78;23.00;;;;;;;;;;5075458;28;20305;-76
2020/12/19 04:50:15;;;;;;;41.65;22.20;;;;;;;;;;5094528;28;20565;-76
2020/12/19 04:52:41;;;;;;;40.35;23.83;;;;;;;;;;5081828;28;20175;-77
2020/12/19 04:55:07;;;;;;;42.97;23.77;;;;;;;;;;5084890;28;20528;-76
2020/12/19 04:57:34;;;;;;;36.20;21.95;;;;;;;;;;5080674;28;20253;-74
2020/12/19 05:00:00;;;;;;;39.63;23.55;;;;;;;;;;5080017;28;20203;-77
2020/12/19 05:02:26;;;;;;;41.97;23.67;;;;;;;;;;5087890;28;20169;-76
2020/12/19 05:04:52;;;;;;;32.42;20.27;;;;;;;;;;5073990;28;20180;-76
2020/12/19 05:07:18;;;;;;;40.78;23.27;;;;;;;;;;5086092;28;20192;-76
2020/12/19 05:09:45;;;;;;;40.22;23.23;;;;;;;;;;5091452;28;20239;-74
2020/12/19 05:12:11;;;;;;;42.90;24.88;;;;;;;;;;5078405;28;20229;-74
2020/12/19 05:14:38;;;;;;;37.65;22.27;;;;;;;;;;5093184;28;20187;-76
2020/12/19 05:17:04;;;;;;;36.78;21.98;;;;;;;;;;5090928;28;20588;-76
2020/12/19 05:19:30;;;;;;;40.97;23.85;;;;;;;;;;5093878;28;20199;-74
2020/12/19 05:21:57;;;;;;;40.95;23.80;;;;;;;;;;5087619;28;20537;-75
2020/12/19 05:24:30;;;;;;;42.22;23.50;;;;;;;;;;5093002;28;20578;-73
2020/12/19 05:26:56;;;;;;;41.17;23.60;;;;;;;;;;5078024;28;20229;-77
2020/12/19 05:29:22;;;;;;;42.75;23.35;;;;;;;;;;5074366;28;20250;-76
2020/12/19 05:31:54;;;;;;;48.05;23.30;;;;;;;;;;5093862;28;20179;-76
2020/12/19 05:34:21;;;;;;;41.65;22.85;;;;;;;;;;5087129;28;20172;-74
2020/12/19 05:36:48;;;;;;;38.10;23.13;;;;;;;;;;5085754;28;20221;-77
2020/12/19 05:39:14;;;;;;;42.60;23.65;;;;;;;;;;5093093;28;20249;-74
2020/12/19 05:41:40;;;;;;;37.53;20.88;;;;;;;;;;5090150;28;20183;-77
2020/12/19 05:44:07;;;;;;;36.55;22.20;;;;;;;;;;5079845;28;20182;-77
2020/12/19 05:46:34;;;;;;;39.13;23.38;;;;;;;;;;5080154;28;20180;-73
2020/12/19 05:49:01;;;;;;;38.50;22.40;;;;;;;;;;5077541;28;20215;-76
2020/12/19 05:51:28;;;;;;;39.80;22.88;;;;;;;;;;5083013;28;20204;-76
2020/12/19 05:53:57;;;;;;;47.42;24.98;;;;;;;;;;5081223;28;20645;-78
2020/12/19 05:56:23;;;;;;;41.00;23.92;;;;;;;;;;5080028;28;20713;-75
2020/12/19 05:58:51;;;;;;;43.75;24.50;;;;;;;;;;5093598;28;20207;-77
2020/12/19 06:01:18;;;;;;;39.75;22.75;;;;;;;;;;5093539;28;20179;-76
2020/12/19 06:03:46;;;;;;;37.35;22.48;;;;;;;;;;5093230;28;20240;-75
2020/12/19 06:06:13;;;;;;;38.03;22.02;;;;;;;;;;5092453;28;20172;-77
2020/12/19 06:08:39;;;;;;;40.97;22.50;;;;;;;;;;5091583;28;20306;-74
2020/12/19 06:11:10;;;;;;;39.08;21.48;;;;;;;;;;5100567;28;20521;-74
2020/12/19 06:13:38;;;;;;;34.35;21.15;;;;;;;;;;5087336;28;20183;-77
2020/12/19 06:16:12;;;;;;;38.45;21.20;;;;;;;;;;5093291;28;20244;-76
2020/12/19 06:18:44;;;;;;;40.67;22.38;;;;;;;;;;5093077;28;20655;-75
2020/12/19 06:21:11;;;;;;;42.30;23.25;;;;;;;;;;5092812;28;20258;-74
2020/12/19 06:23:38;;;;;;;36.58;21.27;;;;;;;;;;5088180;28;20188;-78
2020/12/19 06:26:10;;;;;;;33.42;21.35;;;;;;;;;;5083056;28;20671;-74
2020/12/19 06:28:42;;;;;;;38.95;21.20;;;;;;;;;;5075141;28;20196;-75
2020/12/19 06:31:16;;;;;;;35.00;22.00;;;;;;;;;;5079328;28;20167;-73
2020/12/19 06:33:43;;;;;;;35.80;20.98;;;;;;;;;;5079733;28;20262;-74
2020/12/19 06:36:25;;;;;;;37.85;21.13;;;;;;;;;;5093110;28;20176;-77
2020/12/19 06:39:07;;;;;;;34.53;21.10;;;;;;;;;;5092826;28;20206;-75
2020/12/19 06:41:42;;;;;;;39.60;23.08;;;;;;;;;;5091304;28;20626;-75
2020/12/19 06:44:13;;;;;;;35.78;20.88;;;;;;;;;;5091327;28;20319;-76
2020/12/19 06:46:39;;;;;;;37.83;20.65;;;;;;;;;;5082149;28;20188;-77
2020/12/19 06:49:24;;;;;;;32.47;20.83;;;;;;;;;;5074431;28;20203;-75
2020/12/19 06:51:59;;;;;;;37.65;21.55;;;;;;;;;;5083443;28;20179;-74
2020/12/19 06:54:32;;;;;;;35.95;22.38;;;;;;;;;;5092050;28;20634;-76
2020/12/19 06:56:58;;;;;;;36.17;22.95;;;;;;;;;;5084768;28;20184;-74
2020/12/19 06:59:25;;;;;;;40.13;21.42;;;;;;;;;;5088845;28;20252;-75
2020/12/19 07:01:51;;;;;;;39.35;23.58;;;;;;;;;;5092883;28;20186;-75
2020/12/19 07:04:33;;;;;;;34.30;21.02;;;;;;;;;;5078048;28;20263;-75
2020/12/19 07:07:03;;;;;;;36.22;20.52;;;;;;;;;;5092199;28;20222;-74
2020/12/19 07:09:29;;;;;;;38.75;22.85;;;;;;;;;;5089705;28;20204;-75
2020/12/19 07:11:56;;;;;;;41.63;23.15;;;;;;;;;;5073462;28;20173;-76
2020/12/19 07:14:22;;;;;;;38.90;20.80;;;;;;;;;;5086948;28;20251;-74
2020/12/19 07:16:52;;;;;;;38.35;20.55;;;;;;;;;;5086722;28;20266;-75
2020/12/19 07:19:28;;;;;;;38.47;21.10;;;;;;;;;;5091297;28;20208;-77
2020/12/19 07:21:55;;;;;;;38.47;21.92;;;;;;;;;;5078034;28;20502;-74
2020/12/19 07:24:22;;;;;;;33.90;21.38;;;;;;;;;;5095946;28;20187;-76
2020/12/19 07:26:48;;;;;;;36.15;21.88;;;;;;;;;;5094640;28;20251;-78
2020/12/19 07:29:15;;;;;;;40.50;22.08;;;;;;;;;;5088324;28;20675;-74
2020/12/19 07:31:48;;;;;;;36.55;21.42;;;;;;;;;;5094755;28;20224;-76
2020/12/19 07:34:14;;;;;;;42.65;25.20;;;;;;;;;;5086584;28;20175;-74
2020/12/19 07:36:41;;;;;;;38.65;22.13;;;;;;;;;;5095685;28;20186;-74
2020/12/19 07:39:07;;;;;;;36.45;22.98;;;;;;;;;;5087931;28;20232;-75
2020/12/19 07:41:34;;;;;;;37.88;21.63;;;;;;;;;;5089663;28;20629;-77
2020/12/19 07:44:09;;;;;;;37.25;22.90;;;;;;;;;;5080801;28;20705;-74
2020/12/19 07:46:35;;;;;;;38.03;20.67;;;;;;;;;;5089199;28;20596;-77
2020/12/19 07:49:01;;;;;;;36.15;22.27;;;;;;;;;;5075345;28;20215;-77
2020/12/19 07:51:27;;;;;;;36.15;21.95;;;;;;;;;;5075461;28;20165;-73
2020/12/19 07:53:53;;;;;;;32.67;21.20;;;;;;;;;;5081710;28;20168;-77
2020/12/19 07:56:19;;;;;;;34.42;22.05;;;;;;;;;;5079700;28;20634;-74
2020/12/19 07:58:47;;;;;;;32.00;20.63;;;;;;;;;;5084602;28;20537;-77
2020/12/19 08:01:13;;;;;;;39.33;26.60;;;;;;;;;;5079710;28;20183;-73
2020/12/19 08:03:39;;;;;;;35.47;23.52;;;;;;;;;;5091249;28;20183;-76
2020/12/19 08:06:05;;;;;;;36.80;25.45;;;;;;;;;;5095561;28;20171;-74
2020/12/19 08:08:31;;;;;;;43.63;29.17;;;;;;;;;;5078520;28;20216;-75
2020/12/19 08:11:04;;;;;;;35.97;23.50;;;;;;;;;;5093079;28;20167;-74
2020/12/19 08:13:30;;;;;;;31.90;21.25;;;;;;;;;;5087219;28;20169;-76
2020/12/19 08:15:56;;;;;;;30.08;20.40;;;;;;;;;;5087658;28;20159;-74
2020/12/19 08:18:22;;;;;;;33.08;20.17;;;;;;;;;;5091514;28;20684;-75
2020/12/19 08:20:49;;;;;;;32.67;21.38;;;;;;;;;;5087800;28;20210;-76
2020/12/19 08:23:15;;;;;;;32.97;20.52;;;;;;;;;;5093074;28;20263;-74
2020/12/19 08:25:41;;;;;;;30.92;19.88;;;;;;;;;;5085481;28;20180;-74
2020/12/19 08:28:18;;;;;;;32.83;19.08;;;;;;;;;;5082647;28;20177;-74
2020/12/19 08:30:45;;;;;;;33.92;19.77;;;;;;;;;;5084611;28;20683;-75
2020/12/19 08:33:12;;;;;;;34.05;20.70;;;;;;;;;;5092893;28;20175;-76
2020/12/19 08:35:41;;;;;;;30.55;20.95;;;;;;;;;;5094443;28;20210;-75
2020/12/19 08:38:10;;;;;;;32.40;20.75;;;;;;;;;;5077914;28;20211;-76
2020/12/19 08:40:42;;;;;;;32.35;21.38;;;;;;;;;;5094438;28;20188;-76
2020/12/19 08:43:09;;;;;;;30.70;20.52;;;;;;;;;;5080771;28;20183;-75
2020/12/19 08:45:36;;;;;;;30.42;21.23;;;;;;;;;;5090937;28;20505;-75
2020/12/19 08:48:09;;;;;;;30.95;20.02;;;;;;;;;;5091776;28;20180;-74
2020/12/19 08:50:39;;;;;;;37.78;24.35;;;;;;;;;;5095016;28;20324;-76
2020/12/19 08:53:10;;;;;;;29.48;19.77;;;;;;;;;;5084769;28;20182;-74
2020/12/19 08:55:36;;;;;;;28.40;18.30;;;;;;;;;;5076575;28;20179;-74
2020/12/19 08:58:02;;;;;;;32.05;20.35;;;;;;;;;;5085446;28;20185;-76
2020/12/19 09:00:33;;;;;;;32.72;21.55;;;;;;;;;;5074193;28;20250;-76
2020/12/19 09:03:02;;;;;;;26.58;19.23;;;;;;;;;;5087833;28;20199;-75
2020/12/19 09:05:32;;;;;;;26.25;18.55;;;;;;;;;;5084098;28;20514;-73
2020/12/19 09:07:58;;;;;;;22.63;16.83;;;;;;;;;;5094338;28;20252;-77
2020/12/19 09:10:28;;;;;;;24.52;17.50;;;;;;;;;;5094116;28;20197;-76
2020/12/19 09:13:13;;;;;;;23.08;16.65;;;;;;;;;;5080113;28;20177;-75
2020/12/19 09:15:40;;;;;;;20.08;15.65;;;;;;;;;;5092644;28;20257;-75
2020/12/19 09:18:16;;;;;;;20.50;16.15;;;;;;;;;;5074241;28;20164;-73
2020/12/19 09:20:46;;;;;;;27.35;18.10;;;;;;;;;;5084110;28;20648;-77
2020/12/19 09:23:12;;;;;;;21.20;17.65;;;;;;;;;;5074056;28;20233;-76
2020/12/19 09:25:39;;;;;;;21.70;17.05;;;;;;;;;;5073545;28;20199;-75
2020/12/19 09:28:05;;;;;;;19.40;15.75;;;;;;;;;;5073784;28;20180;-76
2020/12/19 09:30:31;;;;;;;23.35;17.33;;;;;;;;;;5073775;28;20550;-75
2020/12/19 09:32:57;;;;;;;17.13;14.65;;;;;;;;;;5086060;28;20171;-76
2020/12/19 09:35:24;;;;;;;18.63;15.52;;;;;;;;;;5093430;28;20541;-75
2020/12/19 09:37:50;;;;;;;18.65;15.10;;;;;;;;;;5093841;28;20171;-76
2020/12/19 09:40:16;;;;;;;16.13;14.43;;;;;;;;;;5093381;28;20211;-75
2020/12/19 09:42:42;;;;;;;14.80;12.93;;;;;;;;;;5081978;28;20172;-73
2020/12/19 09:45:08;;;;;;;15.52;13.45;;;;;;;;;;5073447;28;20187;-74
2020/12/19 09:47:34;;;;;;;15.05;13.45;;;;;;;;;;5086783;28;20302;-76
2020/12/19 09:50:00;;;;;;;15.38;13.88;;;;;;;;;;5079380;28;20223;-74
2020/12/19 09:52:26;;;;;;;15.75;14.05;;;;;;;;;;5079281;28;20200;-75
2020/12/19 09:54:52;;;;;;;14.98;13.38;;;;;;;;;;5088837;28;20245;-76
2020/12/19 09:57:19;;;;;;;16.48;13.77;;;;;;;;;;5082469;28;20194;-75
2020/12/19 09:59:46;;;;;;;18.67;14.73;;;;;;;;;;5085738;28;20209;-74
2020/12/19 10:02:12;;;;;;;18.13;15.38;;;;;;;;;;5084091;28;20240;-75
2020/12/19 10:04:38;;;;;;;18.15;14.50;;;;;;;;;;5089007;28;20266;-76
2020/12/19 10:07:04;;;;;;;17.70;14.95;;;;;;;;;;5089508;28;20202;-74
2020/12/19 10:09:30;;;;;;;17.80;14.20;;;;;;;;;;5080934;28;20712;-74
2020/12/19 10:11:57;;;;;;;16.23;14.18;;;;;;;;;;5074303;28;20550;-75
2020/12/19 10:14:23;;;;;;;16.00;14.30;;;;;;;;;;5090053;28;20191;-75
2020/12/19 10:16:49;;;;;;;16.70;14.45;;;;;;;;;;5089806;28;20179;-75
2020/12/19 10:19:15;;;;;;;21.17;15.40;;;;;;;;;;5082109;28;20211;-73
2020/12/19 10:21:41;;;;;;;15.60;13.90;;;;;;;;;;5069448;28;20187;-73
2020/12/19 10:24:07;;;;;;;16.00;13.68;;;;;;;;;;5074060;28;20186;-75
2020/12/19 10:26:33;;;;;;;16.75;14.20;;;;;;;;;;5089861;28;20217;-77
2020/12/19 10:28:59;;;;;;;15.00;13.43;;;;;;;;;;5085908;28;20204;-76
2020/12/19 10:31:28;;;;;;;16.52;14.75;;;;;;;;;;5069294;28;20172;-75
2020/12/19 10:33:54;;;;;;;14.98;13.45;;;;;;;;;;5082306;28;20190;-76
2020/12/19 10:36:21;;;;;;;16.00;14.30;;;;;;;;;;5089501;28;20184;-74
2020/12/19 10:38:47;;;;;;;15.82;14.02;;;;;;;;;;5087638;28;20218;-76
2020/12/19 10:41:13;;;;;;;17.30;13.55;;;;;;;;;;5069140;28;20192;-73
2020/12/19 10:43:40;;;;;;;16.65;14.95;;;;;;;;;;5074556;28;20192;-75
2020/12/19 10:46:06;;;;;;;16.95;14.52;;;;;;;;;;5077274;28;20190;-74
2020/12/19 10:48:32;;;;;;;18.70;14.40;;;;;;;;;;5088625;28;20195;-74
2020/12/19 10:50:58;;;;;;;16.92;13.90;;;;;;;;;;5081345;28;20312;-75
2020/12/19 10:53:24;;;;;;;16.52;14.38;;;;;;;;;;5081144;28;20183;-72
2020/12/19 10:55:51;;;;;;;15.88;14.18;;;;;;;;;;5073673;28;20203;-75
2020/12/19 10:58:17;;;;;;;14.90;13.40;;;;;;;;;;5083175;28;20180;-75
2020/12/19 11:00:43;;;;;;;16.30;14.20;;;;;;;;;;5073016;28;20201;-75
2020/12/19 11:03:09;;;;;;;15.82;13.82;;;;;;;;;;5077102;28;20167;-74
2020/12/19 11:05:41;;;;;;;17.90;13.55;;;;;;;;;;5079585;28;20180;-74
2020/12/19 11:08:08;;;;;;;14.85;13.10;;;;;;;;;;5077473;28;20242;-74
2020/12/19 11:10:34;;;;;;;14.80;13.23;;;;;;;;;;5083583;28;20207;-74
2020/12/19 11:13:03;;;;;;;15.02;13.43;;;;;;;;;;5078888;28;20179;-75
2020/12/19 11:15:32;;;;;;;16.08;13.95;;;;;;;;;;5092841;28;20239;-77
2020/12/19 11:17:59;;;;;;;15.00;13.40;;;;;;;;;;5092558;28;20176;-75
2020/12/19 11:20:25;;;;;;;14.90;13.40;;;;;;;;;;5093086;28;20214;-75
2020/12/19 11:22:51;;;;;;;14.88;13.35;;;;;;;;;;5075990;28;20189;-74
2020/12/19 11:25:17;;;;;;;14.57;13.05;;;;;;;;;;5072494;28;20193;-77
2020/12/19 11:27:44;;;;;;;15.98;13.60;;;;;;;;;;5087341;28;20256;-74
2020/12/19 11:30:10;;;;;;;15.75;13.68;;;;;;;;;;5071597;28;20766;-75
2020/12/19 11:32:36;;;;;;;14.90;13.40;;;;;;;;;;5087748;28;20210;-74
2020/12/19 11:35:02;;;;;;;14.90;13.15;;;;;;;;;;5076312;28;20702;-75
2020/12/19 11:37:28;;;;;;;13.95;12.32;;;;;;;;;;5088184;28;20187;-77
2020/12/19 11:39:54;;;;;;;14.98;13.48;;;;;;;;;;5084670;28;20600;-76
2020/12/19 11:42:21;;;;;;;13.80;12.40;;;;;;;;;;5086196;28;20183;-76
2020/12/19 11:44:47;;;;;;;14.93;13.45;;;;;;;;;;5088255;28;20548;-77
2020/12/19 11:47:13;;;;;;;13.52;12.18;;;;;;;;;;5092686;28;20186;-75
2020/12/19 11:49:39;;;;;;;14.07;12.75;;;;;;;;;;5092650;28;20215;-76
2020/12/19 11:52:12;;;;;;;13.68;12.35;;;;;;;;;;5092443;28;20179;-75
2020/12/19 11:54:38;;;;;;;15.20;12.10;;;;;;;;;;5092283;28;20270;-76
2020/12/19 11:57:04;;;;;;;13.00;11.70;;;;;;;;;;5086577;28;20429;-74
2020/12/19 11:59:30;;;;;;;13.63;12.37;;;;;;;;;;5076051;28;20445;-75
2020/12/19 12:01:59;;;;;;;12.70;11.40;;;;;;;;;;5091600;28;20421;-77
2020/12/19 12:04:25;;;;;;;15.70;13.27;;;;;;;;;;5080418;28;20438;-74
2020/12/19 12:06:51;;;;;;;14.50;13.00;;;;;;;;;;5088521;28;20424;-76
2020/12/19 12:09:17;;;;;;;12.93;11.67;;;;;;;;;;5078478;28;20464;-76
2020/12/19 12:11:43;;;;;;;14.33;12.87;;;;;;;;;;5090707;27;20426;-77
2020/12/19 12:14:10;;;;;;;13.73;12.40;;;;;;;;;;5079976;28;20422;-75
2020/12/19 12:16:36;;;;;;;15.83;13.90;;;;;;;;;;5071767;28;20168;-76
2020/12/19 12:19:02;;;;;;;13.73;12.33;;;;;;;;;;5070368;28;20462;-73
2020/12/19 12:21:41;;;;;;;15.00;13.35;;;;;;;;;;5071738;28;20764;-74
2020/12/19 12:24:07;;;;;;;16.55;14.02;;;;;;;;;;5083892;28;20179;-75
2020/12/19 12:26:34;;;;;;;13.07;11.77;;;;;;;;;;5091534;28;20183;-75
2020/12/19 12:29:01;;;;;;;13.40;12.20;;;;;;;;;;5091874;28;20264;-75
2020/12/19 12:31:31;;;;;;;13.57;12.17;;;;;;;;;;5092022;28;20482;-74
2020/12/19 12:33:58;;;;;;;12.77;11.63;;;;;;;;;;5091378;28;20406;-78
2020/12/19 12:36:25;;;;;;;12.67;11.53;;;;;;;;;;5091645;28;20421;-75
2020/12/19 12:38:51;;;;;;;13.53;11.90;;;;;;;;;;5091629;28;20473;-73
2020/12/19 12:41:18;;;;;;;13.37;12.13;;;;;;;;;;5091754;28;21216;-77
2020/12/19 12:43:44;;;;;;;13.20;12.00;;;;;;;;;;5091078;28;20446;-74
2020/12/19 12:46:11;;;;;;;14.13;12.63;;;;;;;;;;5078040;28;20441;-76
2020/12/19 12:48:37;;;;;;;13.97;12.60;;;;;;;;;;5091446;28;20454;-78
2020/12/19 12:51:06;;;;;;;13.53;12.17;;;;;;;;;;5091700;28;20464;-74
2020/12/19 12:53:32;;;;;;;12.90;11.70;;;;;;;;;;5091287;28;20837;-75
2020/12/19 12:55:58;;;;;;;12.90;11.67;;;;;;;;;;5089095;28;20414;-76
2020/12/19 12:58:25;;;;;;;13.70;12.00;;;;;;;;;;5085273;28;20419;-76
2020/12/19 13:00:51;;;;;;;12.37;11.17;;;;;;;;;;5091275;28;20794;-76
2020/12/19 13:03:17;;;;;;;12.97;11.67;;;;;;;;;;5091030;28;20774;-75
2020/12/19 13:05:43;;;;;;;13.73;12.53;;;;;;;;;;5091025;28;20510;-76
2020/12/19 13:08:09;;;;;;;13.60;12.30;;;;;;;;;;5090701;28;20910;-79
2020/12/19 13:10:35;;;;;;;15.70;13.13;;;;;;;;;;5091804;28;20804;-74
2020/12/19 13:13:01;;;;;;;13.30;12.00;;;;;;;;;;5079512;28;20949;-73
2020/12/19 13:15:27;;;;;;;13.10;11.90;;;;;;;;;;5082712;28;20437;-75
2020/12/19 13:17:53;;;;;;;12.02;10.82;;;;;;;;;;5070524;28;20422;-76
2020/12/19 13:20:19;;;;;;;13.88;12.43;;;;;;;;;;5086590;28;20572;-76
2020/12/19 13:22:45;;;;;;;14.13;11.60;;;;;;;;;;5088475;28;20670;-75
2020/12/19 13:25:12;;;;;;;12.38;11.20;;;;;;;;;;5073783;28;20519;-78
2020/12/19 13:27:38;;;;;;;12.43;11.13;;;;;;;;;;5075244;28;20237;-75
2020/12/19 13:30:04;;;;;;;13.75;11.95;;;;;;;;;;5090803;28;20215;-74
2020/12/19 13:32:30;;;;;;;12.63;11.32;;;;;;;;;;5090788;28;20188;-76
2020/12/19 13:34:56;;;;;;;12.68;11.38;;;;;;;;;;5088902;28;20188;-74
2020/12/19 13:37:22;;;;;;;13.35;11.95;;;;;;;;;;5090924;28;20181;-79
2020/12/19 13:39:48;;;;;;;13.40;12.00;;;;;;;;;;5090746;28;20234;-78
2020/12/19 13:42:14;;;;;;;13.90;12.23;;;;;;;;;;5075829;28;20192;-77
2020/12/19 13:44:40;;;;;;;13.98;12.57;;;;;;;;;;5076370;28;20181;-76
2020/12/19 13:47:06;;;;;;;14.45;12.70;;;;;;;;;;5084732;28;20229;-76
2020/12/19 13:49:32;;;;;;;14.27;12.80;;;;;;;;;;5080395;28;20215;-77
2020/12/19 13:52:01;;;;;;;12.90;11.52;;;;;;;;;;5078232;28;20537;-76
2020/12/19 13:54:27;;;;;;;14.13;12.10;;;;;;;;;;5070077;28;20227;-77
2020/12/19 13:56:54;;;;;;;15.30;13.52;;;;;;;;;;5075084;28;20212;-75
2020/12/19 13:59:21;;;;;;;16.92;12.68;;;;;;;;;;5089853;28;20187;-76
2020/12/19 14:01:47;;;;;;;12.98;11.57;;;;;;;;;;5079789;28;20232;-78
2020/12/19 14:04:13;;;;;;;14.10;12.60;;;;;;;;;;5076249;28;20193;-77
2020/12/19 14:06:39;;;;;;;13.23;11.88;;;;;;;;;;5076443;28;20194;-76
2020/12/19 14:09:05;;;;;;;13.85;12.10;;;;;;;;;;5078682;28;20212;-77
2020/12/19 14:11:33;;;;;;;13.27;11.73;;;;;;;;;;5089646;28;20202;-76
2020/12/19 14:13:59;;;;;;;13.48;11.77;;;;;;;;;;5082267;28;20172;-75
2020/12/19 14:16:29;;;;;;;14.73;12.88;;;;;;;;;;5087098;28;20290;-75